Ferrysburg, Michigan
Current Conditions -  °F | °C
As of 9:55 AM on Sunday 21 Dec 2014 (Local Time) from KMKG Reporting Station
Haze Haze  
Wind Chill: 26°   Ceiling: 3800
Heat Index: 33°   Visibility: 4mi
Dew Point: 27°   Wind: 8mph
Humidity: 78%   Direction: 150°SSE
Pressure: 30.23"   Gusts: NA
Location:  43.08°N, 86.22°W
Report Text: KMKG 211455Z 15007KT 4SM HZ BKN038 OVC049 01/M03 A3023 RMK AO2 SLP245 T00061028 58001
Loading
Personal Weather Stations






























Interactive Weather Map New forecast layout! Learn more

10-Day Weather Forecast

Advertisements
Track Severe Weather on mobile